Aérodrome :
LOGIN :

S'inscrire | Disclaimer

   EN    FR    IT 

 










Légende :    VFR   VFR Marginal   IFR   IFR Intensif   IFR Très Intensif
Visi : 
Plafond : 
>= 8 km
>= 3000ft
5 à 8 km
1000 à 3000 ft
1500m à 5 km
500 à 1000 ft
800 à 1500m
200 à 500 ft
< 800m
< 200 ft
Symboles :   Orages  Brouillard  Fortes neiges  Fortes précipitations  Vent > 20 kt
SIGMETs :   Divers  Orages  Givrage  Turbulence  Onde Orograph.  Cendres Volcan.







- Altitude de l'aérodrome : 138 ft
- Code IATA : BIO


LEBB - Bilbao

DERNIER METAR :
  • 231930Z VRB02KT 9999 SCT032 SCT048 13/11 Q1029 NOSIG

METARs EXPIRÉS :
  • 231900Z VRB02KT 9999 SCT032 BKN048 13/12 Q1029 NOSIG
  • 231830Z 29002KT 9999 SCT032 BKN048 13/11 Q1029 NOSIG
  • 231800Z VRB02KT 9999 SCT032 BKN048 14/12 Q1029 NOSIG
  • 231730Z VRB02KT 9999 SCT032 BKN048 15/11 Q1029 NOSIG
  • 231700Z 04003KT 350V090 9999 SCT032 BKN048 16/12 Q1029 NOSIG

TAF TAF LEBB
Valide du 23 à 18h jusqu'au 24 à 18h UTC


231700Z 2318/2418 VRB04KT 9999 BKN040 TX18/2414Z TN09/2406Z
TEMPO 2403/2418 19010KT
Pas de NOTAMs connus pour ce terrain.



MET'MAP, la Météo Aéronautique d'un coup d'oeil ! - Copyright ORBIFLY Décembre 2007 - Disclaimer

ORBIFLY MET'MAP TEAM :

Programmation & Développement : Alexandra Zaïnal
Conception & Développement : Baudouin d'Aumeries
Co-Programmation & Développement : Marc-Olivier Méhu
Soutien technique & logistique : Manuel Goepfert

Contact : metmap@orbifly.com




SOURCES & CREDITS :

   NOAA